Portada
METAR-TAF:

METAR-TAF

Aeropuertos :

Aeropuerto de La Coruña

La Coruña, España

latitud: 43-18N, longitud: 008-23W, altitud: 97 m

Observación

El informe se hizo hace 41 minutos, a las 12:30 UTC
Viento 3 kt con dirección variable
Temperatura 21°C
Humedad 60%
Presión 1016 hPa
Visibilidad 10 km o más
sin nubes por debajo de 1500 m y sin presencia de cumulonimbus.

METAR: LECO 151230Z VRB03KT CAVOK 21/13 Q1016 NOSIG

Hora: 14:11 (13:11 UTC)

Pronóstico

El informe se hizo hace 5 horas y 11 minutos, a las 08:00 UTC
Pronóstico válido del 15 a las 09 UTC al 16 a las 09 UTC
Viento 4 kt con dirección variable
Visibilidad 10 km o más
sin nubes por debajo de 1500 m y sin presencia de cumulonimbus.
Probabilidad 40% :
Temporalmente
del 15 a las 21 UTC al 16 a las 09 UTC
Viento 10 kt del sur-sureste

TAF: LECO 150800Z 1509/1609 VRB04KT CAVOK TX18/1514Z TN11/1601Z PROB40 TEMPO 1521/1609 15010KT

Observaciones y pronósticos meteorológicos de más de 4000 aeropuertos (mensajes METAR y TAF).

Los puntos amarillos y rojos representan las estaciones disponibles.

Ponga el ratón en el punto deseado para ver el nombre de la estación.

Haga clic para ver las observaciones y los pronósticos meteorológicos.

Para cambiar el mapa : haga clic en los botones verdes con una cruz de color negro para hacer un zoom, en el botón verde con un guión para alejar o en las flechas verdes para mapas adyacentes.


METAR-TAF: